Wombwell, United Kingdom
Current Conditions -  °F | °C
As of 7:50 AM on Wednesday 22 Oct 2014 (Local Time) from EGCN Reporting Station
Few Clouds Few Clouds  
Wind Chill: 42°   Ceiling: Unl
Heat Index: 46°   Visibility: 6mi
Dew Point: 43°   Wind: 9mph
Humidity: 87%   Direction: 260°W
Pressure: 30.21"   Gusts: NA
Location:  53.52°N, 1.4°W
Report Text: EGCN 220650Z 26008KT 220V280 9999 FEW041 08/06 Q1023
Loading
Personal Weather Stations






























Interactive Weather Map
Tropical Storm Tracking
New forecast layout! Learn more

10-Day Weather Forecast

Advertisements
Track Severe Weather on mobile